Time;durP1;ratioP1;P1;durP2;ratioP2;P2;SDS_P1;SDS_P2;PMS_P1;PMS_P2;Temp;Humidity;BMP_temperature;BMP_pressure;BME280_temperature;BME280_humidity;BME280_pressure;Samples;Min_cycle;Max_cycle;Signal;HPM_P1;HPM_P2
2023/01/28 00:01:54;;;;;;;5.35;4.80;;;4.30;99.90;;;;;;5026967;28;20209;-74
2023/01/28 00:04:40;;;;;;;6.68;5.05;;;4.30;99.90;;;;;;5026235;28;20213;-74
2023/01/28 00:07:25;;;;;;;5.50;4.88;;;4.30;99.90;;;;;;5025192;28;20276;-74
2023/01/28 00:10:11;;;;;;;5.43;4.68;;;4.30;99.90;;;;;;5025007;28;20237;-74
2023/01/28 00:12:57;;;;;;;6.47;4.80;;;4.30;99.90;;;;;;5020552;28;20206;-74
2023/01/28 00:15:44;;;;;;;6.05;5.05;;;4.30;99.90;;;;;;5023752;28;20680;-74
2023/01/28 00:18:31;;;;;;;6.28;5.05;;;4.20;99.90;;;;;;5027976;28;20213;-74
2023/01/28 00:21:16;;;;;;;7.07;5.50;;;4.20;99.90;;;;;;5024029;28;20205;-74
2023/01/28 00:24:02;;;;;;;5.90;5.32;;;4.20;99.90;;;;;;5025126;28;20506;-74
2023/01/28 00:26:47;;;;;;;6.20;5.57;;;4.30;99.90;;;;;;5024748;28;20201;-74
2023/01/28 00:29:33;;;;;;;5.90;4.90;;;4.30;99.90;;;;;;5029428;28;20659;-75
2023/01/28 00:32:20;;;;;;;6.28;5.60;;;4.30;99.90;;;;;;5028072;28;20263;-74
2023/01/28 00:35:06;;;;;;;5.43;4.70;;;4.20;99.90;;;;;;5030898;28;20205;-74
2023/01/28 00:37:52;;;;;;;6.40;5.43;;;4.20;99.90;;;;;;5029716;28;20543;-74
2023/01/28 00:40:38;;;;;;;5.75;4.90;;;4.10;99.90;;;;;;5032105;28;20233;-74
2023/01/28 00:43:24;;;;;;;5.90;5.00;;;4.00;99.90;;;;;;5031844;28;20205;-74
2023/01/28 00:46:12;;;;;;;5.13;4.40;;;4.00;99.90;;;;;;5030301;28;20209;-74
2023/01/28 00:49:00;;;;;;;5.80;4.55;;;4.00;99.90;;;;;;5025708;28;20446;-74
2023/01/28 00:51:47;;;;;;;5.25;4.50;;;4.00;99.90;;;;;;5024233;28;20694;-74
2023/01/28 00:54:35;;;;;;;4.45;3.92;;;4.00;99.90;;;;;;5030967;28;20573;-74
2023/01/28 00:57:20;;;;;;;4.50;3.75;;;4.00;99.90;;;;;;5030885;28;20205;-74
2023/01/28 01:00:07;;;;;;;5.43;4.88;;;4.00;99.90;;;;;;5024373;28;20217;-74
2023/01/28 01:02:53;;;;;;;5.82;4.38;;;4.10;99.90;;;;;;5027166;28;20202;-74
2023/01/28 01:05:40;;;;;;;5.20;4.00;;;4.10;99.90;;;;;;5024115;28;20337;-74
2023/01/28 01:08:33;;;;;;;5.95;4.05;;;4.00;99.90;;;;;;5030262;28;20444;-74
2023/01/28 01:11:19;;;;;;;4.65;3.63;;;4.00;99.90;;;;;;5026677;28;20620;-74
2023/01/28 01:14:05;;;;;;;3.80;3.40;;;4.00;99.90;;;;;;5033010;28;20221;-74
2023/01/28 01:16:51;;;;;;;4.35;3.50;;;4.10;99.90;;;;;;5031464;28;20201;-74
2023/01/28 01:19:37;;;;;;;4.68;3.70;;;4.10;99.90;;;;;;5032266;28;20341;-74
2023/01/28 01:22:24;;;;;;;4.25;3.42;;;4.10;99.90;;;;;;5028006;28;20201;-74
2023/01/28 01:25:14;;;;;;;4.03;3.35;;;4.20;99.90;;;;;;5032602;28;20222;-74
2023/01/28 01:28:00;;;;;;;3.75;3.22;;;4.20;99.90;;;;;;5022559;28;20624;-74
2023/01/28 01:30:46;;;;;;;6.00;4.22;;;4.20;99.90;;;;;;5028173;28;20583;-75
2023/01/28 01:33:32;;;;;;;4.05;3.65;;;4.20;99.90;;;;;;5028409;28;20284;-74
2023/01/28 02:17:17;;;;;;;5.25;4.30;;;4.10;99.90;;;;;;5031569;28;20204;-74
2023/01/28 02:20:06;;;;;;;5.97;3.55;;;4.10;99.90;;;;;;5027231;28;20304;-74
2023/01/28 02:23:21;;;;;;;5.75;4.00;;;4.10;99.90;;;;;;5025216;28;20206;-74
2023/01/28 02:26:31;;;;;;;6.68;4.05;;;4.20;99.90;;;;;;5026769;28;20206;-74
2023/01/28 02:29:26;;;;;;;4.55;3.85;;;4.20;99.90;;;;;;5028218;28;20225;-74
2023/01/28 02:32:18;;;;;;;3.70;3.33;;;4.20;99.90;;;;;;5027726;28;20256;-74
2023/01/28 02:35:11;;;;;;;6.05;4.05;;;4.20;99.90;;;;;;5025635;28;20579;-74
2023/01/28 02:38:04;;;;;;;4.20;3.50;;;4.20;99.90;;;;;;5027300;28;20280;-74
2023/01/28 02:41:04;;;;;;;4.22;3.00;;;4.20;99.90;;;;;;5028517;28;20221;-74
2023/01/28 02:43:50;;;;;;;4.00;3.35;;;4.30;99.90;;;;;;5027615;28;20745;-74
2023/01/28 02:49:44;;;;;;;3.88;3.25;;;4.30;99.90;;;;;;5028823;28;20229;-74
2023/01/28 02:55:49;;;;;;;3.70;3.00;;;4.30;99.90;;;;;;5027831;28;20209;-75
2023/01/28 02:58:40;;;;;;;6.20;2.75;;;4.30;99.90;;;;;;5029075;28;20754;-74
2023/01/28 03:01:32;;;;;;;5.20;3.13;;;4.30;99.90;;;;;;5027827;28;20679;-75
2023/01/28 03:04:24;;;;;;;3.60;2.90;;;4.30;99.90;;;;;;5023287;28;20220;-75
2023/01/28 03:07:12;;;;;;;4.07;3.30;;;4.30;99.90;;;;;;5027672;28;20681;-74
2023/01/28 03:10:03;;;;;;;4.63;3.50;;;4.30;99.90;;;;;;5024090;28;20221;-74
2023/01/28 03:37:32;;;;;;;3.90;3.50;;;4.20;99.90;;;;;;5027960;28;20196;-74
2023/01/28 03:40:18;;;;;;;5.13;3.95;;;4.30;99.90;;;;;;5028002;28;20217;-74
2023/01/28 03:43:04;;;;;;;4.80;4.10;;;4.20;99.90;;;;;;5022211;28;20210;-74
2023/01/28 03:45:51;;;;;;;4.57;3.47;;;4.20;99.90;;;;;;5027706;28;20316;-74
2023/01/28 03:48:37;;;;;;;5.88;4.13;;;4.20;99.90;;;;;;5026599;28;20566;-74
2023/01/28 03:51:22;;;;;;;4.70;4.15;;;4.20;99.90;;;;;;5028427;28;20602;-75
2023/01/28 03:54:09;;;;;;;3.65;3.20;;;4.20;99.90;;;;;;5024469;28;20332;-74
2023/01/28 03:56:55;;;;;;;5.28;3.90;;;4.20;99.90;;;;;;5022185;28;20320;-74
2023/01/28 03:59:41;;;;;;;5.20;3.33;;;4.10;99.90;;;;;;5027348;28;20267;-74
2023/01/28 04:02:27;;;;;;;4.38;3.15;;;4.10;99.90;;;;;;5022744;28;20694;-74
2023/01/28 04:05:14;;;;;;;3.90;3.40;;;4.10;99.90;;;;;;5032138;28;20568;-75
2023/01/28 04:08:00;;;;;;;8.98;3.22;;;4.10;99.90;;;;;;5031622;28;20213;-74
2023/01/28 04:10:47;;;;;;;3.67;3.17;;;4.10;99.90;;;;;;5030343;28;20233;-75
2023/01/28 04:13:32;;;;;;;3.83;3.20;;;4.10;99.90;;;;;;5028641;28;20209;-74
2023/01/28 04:16:19;;;;;;;7.78;3.92;;;4.20;99.90;;;;;;5026824;28;20876;-75
2023/01/28 04:19:04;;;;;;;3.90;3.28;;;4.10;99.90;;;;;;5029459;28;20225;-74
2023/01/28 04:21:52;;;;;;;4.63;2.97;;;4.20;99.90;;;;;;5030239;28;20418;-74
2023/01/28 04:24:38;;;;;;;4.80;3.40;;;4.20;99.90;;;;;;5030422;28;20394;-74
2023/01/28 04:27:25;;;;;;;5.88;3.60;;;4.20;99.90;;;;;;5030995;28;20217;-74
2023/01/28 04:30:11;;;;;;;3.63;3.33;;;4.20;99.90;;;;;;5028283;28;20253;-74
2023/01/28 04:32:57;;;;;;;3.50;3.03;;;4.20;99.90;;;;;;5024999;28;20340;-74
2023/01/28 04:35:42;;;;;;;4.07;3.53;;;4.20;99.90;;;;;;5031852;28;20205;-74
2023/01/28 04:38:28;;;;;;;3.97;3.58;;;4.20;99.90;;;;;;5032043;28;20332;-74
2023/01/28 04:41:14;;;;;;;4.72;3.30;;;4.30;99.90;;;;;;5028180;28;20201;-74
2023/01/28 04:44:02;;;;;;;4.00;3.60;;;4.30;99.90;;;;;;5033475;28;20209;-75
2023/01/28 04:46:47;;;;;;;6.85;4.80;;;4.20;99.90;;;;;;5029415;28;20205;-74
2023/01/28 04:49:33;;;;;;;8.27;5.30;;;4.10;99.90;;;;;;5031696;28;20228;-75
2023/01/28 04:52:19;;;;;;;5.53;4.20;;;4.20;99.90;;;;;;5022869;28;20276;-74
2023/01/28 04:55:05;;;;;;;4.80;4.10;;;4.20;99.90;;;;;;5046714;22;20240;-75
2023/01/28 04:57:51;;;;;;;4.90;3.85;;;4.20;99.90;;;;;;5051154;28;20209;-75
2023/01/28 05:00:38;;;;;;;4.38;3.75;;;4.20;99.90;;;;;;5050940;28;20200;-75
2023/01/28 05:03:24;;;;;;;3.85;3.30;;;4.10;99.90;;;;;;5046903;28;20247;-76
2023/01/28 05:06:09;;;;;;;4.10;3.70;;;4.10;99.90;;;;;;5052543;28;20250;-75
2023/01/28 05:08:55;;;;;;;4.65;3.90;;;4.10;99.90;;;;;;5049561;28;20204;-75
2023/01/28 05:11:41;;;;;;;4.53;3.95;;;4.10;99.90;;;;;;5040795;28;20205;-75
2023/01/28 05:14:26;;;;;;;4.20;3.22;;;4.10;99.90;;;;;;5048051;28;20196;-75
2023/01/28 05:17:14;;;;;;;4.80;3.70;;;4.00;99.90;;;;;;5045279;28;20778;-75
2023/01/28 05:19:59;;;;;;;5.55;3.95;;;4.00;99.90;;;;;;5046228;28;20220;-75
2023/01/28 05:22:45;;;;;;;3.78;3.38;;;3.90;99.90;;;;;;5048397;28;20339;-75
2023/01/28 05:25:31;;;;;;;4.80;3.65;;;4.00;99.90;;;;;;5049987;28;20221;-75
2023/01/28 05:28:16;;;;;;;4.70;3.70;;;4.00;99.90;;;;;;5053152;28;20204;-75
2023/01/28 05:31:03;;;;;;;4.13;3.38;;;4.00;99.90;;;;;;5042504;28;20201;-76
2023/01/28 05:33:51;;;;;;;5.75;3.88;;;3.90;99.90;;;;;;5047879;28;20204;-75
2023/01/28 05:36:37;;;;;;;4.72;4.03;;;3.90;99.90;;;;;;5043922;28;20232;-75
2023/01/28 05:39:23;;;;;;;11.43;5.13;;;3.90;99.90;;;;;;5044289;28;20423;-75
2023/01/28 05:42:08;;;;;;;5.10;3.60;;;3.90;99.90;;;;;;5046358;28;20770;-76
2023/01/28 05:44:54;;;;;;;5.18;4.43;;;4.00;99.90;;;;;;5041732;28;20320;-75
2023/01/28 05:47:40;;;;;;;4.03;3.65;;;3.90;99.90;;;;;;5044178;28;20330;-75
2023/01/28 05:50:27;;;;;;;5.60;4.18;;;3.90;99.90;;;;;;5046459;28;20228;-75
2023/01/28 05:53:12;;;;;;;6.53;4.55;;;4.00;99.90;;;;;;5046388;28;20286;-75
2023/01/28 05:55:58;;;;;;;5.65;4.57;;;4.00;99.90;;;;;;5048848;28;20228;-75
2023/01/28 05:58:43;;;;;;;6.13;4.80;;;4.00;99.90;;;;;;5049983;28;20736;-75
2023/01/28 06:01:29;;;;;;;5.00;4.43;;;4.00;99.90;;;;;;5044735;28;20200;-75
2023/01/28 06:04:17;;;;;;;9.40;6.50;;;4.10;99.90;;;;;;5044401;28;20206;-75
2023/01/28 06:07:04;;;;;;;8.40;6.55;;;4.10;99.90;;;;;;5047286;28;20690;-75
2023/01/28 06:09:50;;;;;;;9.00;6.50;;;4.00;99.90;;;;;;5046208;28;20284;-75
2023/01/28 06:12:36;;;;;;;7.70;6.18;;;4.10;99.90;;;;;;5047685;28;20674;-75
2023/01/28 06:15:22;;;;;;;7.43;4.45;;;4.00;99.90;;;;;;5048127;28;20263;-75
2023/01/28 06:18:07;;;;;;;4.75;4.30;;;4.00;99.90;;;;;;5049542;28;20283;-75
2023/01/28 06:20:53;;;;;;;5.40;4.90;;;4.00;99.90;;;;;;5042269;28;20214;-75
2023/01/28 06:23:40;;;;;;;6.30;5.70;;;4.00;99.90;;;;;;5050043;28;20204;-75
2023/01/28 06:26:26;;;;;;;6.32;4.95;;;4.00;99.90;;;;;;5045783;28;20315;-76
2023/01/28 06:29:11;;;;;;;6.38;5.78;;;3.90;99.90;;;;;;5049828;28;20201;-75
2023/01/28 06:31:57;;;;;;;7.50;5.47;;;4.00;99.90;;;;;;5041082;28;20204;-75
2023/01/28 06:34:43;;;;;;;4.85;4.40;;;4.00;99.90;;;;;;5047935;28;20323;-76
2023/01/28 06:37:28;;;;;;;5.82;5.18;;;4.00;99.90;;;;;;5047624;28;20197;-75
2023/01/28 06:40:16;;;;;;;8.18;5.97;;;4.00;99.90;;;;;;5041435;28;20601;-75
2023/01/28 06:43:01;;;;;;;5.45;4.70;;;3.90;99.90;;;;;;5048372;28;20200;-75
2023/01/28 06:45:47;;;;;;;7.90;5.90;;;4.00;99.90;;;;;;5045011;28;20217;-75
2023/01/28 06:48:32;;;;;;;5.72;5.13;;;4.00;99.90;;;;;;5049849;28;20286;-75
2023/01/28 06:51:18;;;;;;;5.65;5.05;;;4.00;99.90;;;;;;5041928;28;20217;-75
2023/01/28 06:54:04;;;;;;;7.55;5.07;;;3.90;99.90;;;;;;5044623;28;20204;-75
2023/01/28 06:56:51;;;;;;;8.40;5.25;;;3.90;99.90;;;;;;5044890;28;20373;-76
2023/01/28 06:59:36;;;;;;;8.25;5.25;;;4.00;99.90;;;;;;5043844;28;20678;-76
2023/01/28 07:02:22;;;;;;;6.82;5.60;;;4.00;99.90;;;;;;5045503;28;20347;-75
2023/01/28 07:05:09;;;;;;;6.43;5.82;;;4.00;99.90;;;;;;5046801;28;20228;-75
2023/01/28 07:07:54;;;;;;;5.95;4.88;;;4.00;99.90;;;;;;5050441;28;20228;-75
2023/01/28 07:10:40;;;;;;;6.68;4.97;;;4.00;99.90;;;;;;5045503;28;20228;-75
2023/01/28 07:13:27;;;;;;;8.40;5.43;;;4.00;99.90;;;;;;5047208;28;20244;-75
2023/01/28 07:16:13;;;;;;;9.98;7.65;;;4.00;99.90;;;;;;5050771;28;20216;-75
2023/01/28 07:18:58;;;;;;;6.38;4.90;;;4.00;99.90;;;;;;5045334;28;20682;-75
2023/01/28 07:21:44;;;;;;;6.32;5.72;;;4.10;99.90;;;;;;5048658;28;20262;-75
2023/01/28 07:24:30;;;;;;;9.02;7.22;;;4.00;99.90;;;;;;5050325;28;20344;-74
2023/01/28 07:27:16;;;;;;;10.68;8.18;;;4.00;99.90;;;;;;5051695;28;20640;-75
2023/01/28 07:30:02;;;;;;;6.75;5.78;;;4.00;99.90;;;;;;5039218;28;20589;-75
2023/01/28 07:32:53;;;;;;;6.70;5.80;;;3.90;99.90;;;;;;5046450;28;20199;-75
2023/01/28 07:35:38;;;;;;;7.20;5.88;;;3.90;99.90;;;;;;5044547;28;20236;-76
2023/01/28 07:38:24;;;;;;;10.90;7.38;;;3.90;99.90;;;;;;5036201;28;20205;-75
2023/01/28 07:41:10;;;;;;;7.75;6.43;;;3.90;99.90;;;;;;5046701;28;20777;-75
2023/01/28 07:43:55;;;;;;;7.43;5.70;;;4.00;99.90;;;;;;5047156;28;20201;-75
2023/01/28 07:46:42;;;;;;;6.97;5.75;;;4.00;99.90;;;;;;5042050;28;20737;-76
2023/01/28 07:49:28;;;;;;;7.72;6.03;;;3.90;99.90;;;;;;5040208;28;20205;-76
2023/01/28 07:52:14;;;;;;;17.45;8.68;;;4.00;99.90;;;;;;5043597;28;20193;-76
2023/01/28 07:54:59;;;;;;;12.65;8.95;;;3.90;99.90;;;;;;5046003;28;20720;-76
2023/01/28 07:57:50;;;;;;;12.98;8.73;;;3.90;99.90;;;;;;5045156;28;20197;-75
2023/01/28 08:00:37;;;;;;;11.13;7.25;;;4.00;99.90;;;;;;5040795;28;20560;-75
2023/01/28 08:03:25;;;;;;;10.07;7.15;;;4.10;99.90;;;;;;5049637;28;20204;-76
2023/01/28 08:06:11;;;;;;;12.38;6.93;;;4.10;99.90;;;;;;5043586;28;20216;-75
2023/01/28 08:08:57;;;;;;;9.85;6.53;;;4.10;99.90;;;;;;5043694;28;20224;-75
2023/01/28 08:11:42;;;;;;;8.35;6.15;;;4.10;99.90;;;;;;5046980;28;20225;-76
2023/01/28 08:14:31;;;;;;;13.05;7.05;;;4.10;99.90;;;;;;5046051;28;20209;-75
2023/01/28 08:17:16;;;;;;;9.75;5.88;;;4.10;99.90;;;;;;5043097;28;20657;-75
2023/01/28 08:20:04;;;;;;;9.18;8.25;;;4.10;99.90;;;;;;5044009;28;20270;-75
2023/01/28 08:22:49;;;;;;;9.02;7.00;;;4.10;99.90;;;;;;5041392;28;20201;-75
2023/01/28 08:25:38;;;;;;;7.38;6.30;;;4.00;99.90;;;;;;5042563;28;20226;-76
2023/01/28 08:28:23;;;;;;;8.68;6.40;;;4.10;99.90;;;;;;5037700;28;20204;-77
2023/01/28 08:31:12;;;;;;;10.15;6.80;;;4.00;99.90;;;;;;5041180;28;20267;-76
2023/01/28 08:33:58;;;;;;;8.50;5.85;;;4.00;99.90;;;;;;5036936;28;20694;-76
2023/01/28 08:36:44;;;;;;;7.50;6.03;;;4.10;99.90;;;;;;5039882;28;20228;-74
2023/01/28 08:39:30;;;;;;;7.72;5.55;;;4.10;99.90;;;;;;5039662;28;20201;-73
2023/01/28 08:42:16;;;;;;;7.13;5.90;;;4.20;99.90;;;;;;5042133;28;20228;-74
2023/01/28 08:45:01;;;;;;;9.23;6.43;;;4.30;99.90;;;;;;5036797;28;20351;-74
2023/01/28 08:47:50;;;;;;;8.85;5.85;;;4.20;99.90;;;;;;5039527;28;20205;-74
2023/01/28 08:50:39;;;;;;;10.63;6.13;;;4.20;99.90;;;;;;5046719;28;20232;-74
2023/01/28 08:53:26;;;;;;;11.85;6.68;;;4.20;99.90;;;;;;5048480;28;20201;-74
2023/01/28 08:56:11;;;;;;;9.35;5.95;;;4.20;99.90;;;;;;5048536;28;20591;-74
2023/01/28 08:58:57;;;;;;;8.25;6.43;;;4.20;99.90;;;;;;5044601;28;20201;-74
2023/01/28 09:01:42;;;;;;;18.67;6.75;;;4.20;99.90;;;;;;5044511;28;20205;-73
2023/01/28 09:04:28;;;;;;;9.55;6.57;;;4.20;99.90;;;;;;5044647;28;20483;-74
2023/01/28 09:07:14;;;;;;;8.63;7.18;;;4.20;99.90;;;;;;5044052;28;20204;-74
2023/01/28 09:10:01;;;;;;;10.23;6.45;;;4.20;99.90;;;;;;5049945;28;20212;-74
2023/01/28 09:12:47;;;;;;;7.65;6.55;;;4.30;99.90;;;;;;5052393;28;20669;-73
2023/01/28 09:15:33;;;;;;;7.50;6.45;;;4.30;99.90;;;;;;5046969;28;20621;-74
2023/01/28 09:18:19;;;;;;;8.85;6.07;;;4.30;99.90;;;;;;5040947;28;20216;-74
2023/01/28 09:21:10;;;;;;;12.43;6.97;;;4.30;99.90;;;;;;5046819;28;20551;-75
2023/01/28 09:23:57;;;;;;;9.02;6.95;;;4.20;99.90;;;;;;5047955;28;20201;-75
2023/01/28 09:26:44;;;;;;;16.05;6.90;;;4.20;99.90;;;;;;5048138;28;20374;-76
2023/01/28 09:29:29;;;;;;;7.80;6.00;;;4.20;99.90;;;;;;5048733;28;20385;-76
2023/01/28 09:32:15;;;;;;;8.77;6.43;;;4.30;99.90;;;;;;5052712;28;20209;-75
2023/01/28 09:35:01;;;;;;;16.33;6.97;;;4.30;99.90;;;;;;5043750;28;20588;-75
2023/01/28 09:37:46;;;;;;;7.18;5.50;;;4.40;99.90;;;;;;5041284;28;20200;-75
2023/01/28 09:40:36;;;;;;;12.20;5.72;;;4.30;99.90;;;;;;5043730;28;20204;-75
2023/01/28 09:43:45;;;;;;;6.18;4.60;;;4.30;99.90;;;;;;5052393;28;20271;-75
2023/01/28 09:46:33;;;;;;;7.68;5.50;;;4.40;99.90;;;;;;5049662;28;20233;-75
2023/01/28 09:49:34;;;;;;;5.88;4.72;;;4.40;99.90;;;;;;5049537;28;20208;-75
2023/01/28 09:52:23;;;;;;;7.90;5.28;;;4.30;99.90;;;;;;5052301;28;20221;-75
2023/01/28 09:55:19;;;;;;;7.03;5.55;;;4.40;99.90;;;;;;5046094;28;20725;-75
2023/01/28 09:58:06;;;;;;;6.03;5.03;;;4.50;99.90;;;;;;5037657;28;20196;-74
2023/01/28 10:00:59;;;;;;;17.23;9.07;;;4.40;99.90;;;;;;5044102;28;20206;-73
2023/01/28 10:03:53;;;;;;;14.23;8.55;;;4.30;99.90;;;;;;5043189;28;20228;-74
2023/01/28 10:06:48;;;;;;;6.82;5.38;;;4.30;99.90;;;;;;5041515;28;20233;-74
2023/01/28 10:09:45;;;;;;;7.43;5.55;;;4.30;99.90;;;;;;5048967;28;20205;-74
2023/01/28 10:12:51;;;;;;;7.50;5.40;;;4.30;99.90;;;;;;5045467;28;20301;-74
2023/01/28 10:15:54;;;;;;;6.35;4.50;;;4.30;99.90;;;;;;5047181;28;20236;-74
2023/01/28 10:18:46;;;;;;;7.90;5.55;;;4.30;99.90;;;;;;5048628;28;20244;-75
2023/01/28 10:21:38;;;;;;;6.35;5.20;;;4.30;99.90;;;;;;5046187;28;20197;-75
2023/01/28 10:24:29;;;;;;;7.35;5.70;;;4.40;99.90;;;;;;5042495;28;20205;-75
2023/01/28 10:27:19;;;;;;;6.97;4.75;;;4.40;99.90;;;;;;5044347;28;20209;-75
2023/01/28 10:30:18;;;;;;;7.80;4.80;;;4.50;99.90;;;;;;5043258;28;20622;-75
2023/01/28 10:33:05;;;;;;;7.50;5.15;;;4.50;99.90;;;;;;5043777;28;20755;-74
2023/01/28 10:35:54;;;;;;;15.05;4.55;;;4.50;99.90;;;;;;5040017;28;20225;-76
2023/01/28 10:38:40;;;;;;;8.60;6.35;;;4.50;99.90;;;;;;5050049;28;20581;-76
2023/01/28 10:41:25;;;;;;;10.20;7.75;;;4.40;99.90;;;;;;5050098;28;20205;-75
2023/01/28 10:44:17;;;;;;;5.93;4.95;;;4.40;99.90;;;;;;5043458;28;20206;-75
2023/01/28 10:47:08;;;;;;;7.00;5.15;;;4.40;99.90;;;;;;5038557;28;20324;-75
2023/01/28 10:49:58;;;;;;;6.43;5.00;;;4.40;99.90;;;;;;5038425;28;20202;-75
2023/01/28 10:52:54;;;;;;;7.75;4.90;;;4.30;99.90;;;;;;5050977;28;20232;-75
2023/01/28 10:55:50;;;;;;;5.38;4.50;;;4.50;99.90;;;;;;5076585;22;20293;-75
2023/01/28 10:58:46;;;;;;;6.68;4.50;;;4.50;99.90;;;;;;5090050;28;20281;-76
2023/01/28 11:01:44;;;;;;;4.75;3.63;;;4.60;99.90;;;;;;5083324;28;20677;-75
2023/01/28 11:04:32;;;;;;;10.68;3.92;;;4.60;99.90;;;;;;5083017;28;20199;-75
2023/01/28 11:07:19;;;;;;;8.32;4.60;;;4.70;99.90;;;;;;5064200;28;20704;-74
2023/01/28 11:10:31;;;;;;;7.07;4.20;;;4.70;99.90;;;;;;5059724;28;20327;-76
2023/01/28 11:13:18;;;;;;;6.35;3.88;;;4.70;99.90;;;;;;5066104;28;20199;-76
2023/01/28 11:16:06;;;;;;;4.93;4.15;;;4.70;99.90;;;;;;5066049;28;20748;-76
2023/01/28 11:18:54;;;;;;;7.13;4.63;;;4.70;99.90;;;;;;5059547;28;20195;-76
2023/01/28 11:21:40;;;;;;;6.70;4.38;;;4.60;99.90;;;;;;5064736;28;20220;-76
2023/01/28 11:24:29;;;;;;;6.47;3.40;;;4.70;99.90;;;;;;5066679;28;20251;-76
2023/01/28 11:27:18;;;;;;;6.80;3.78;;;4.70;99.90;;;;;;5068225;28;20204;-76
2023/01/28 11:30:06;;;;;;;10.57;3.97;;;4.80;99.90;;;;;;5059362;28;20211;-77
2023/01/28 11:33:03;;;;;;;4.97;3.75;;;4.80;99.90;;;;;;5069178;28;20223;-75
2023/01/28 11:35:57;;;;;;;4.82;3.75;;;4.80;99.90;;;;;;5067161;28;20580;-75
2023/01/28 11:38:51;;;;;;;5.53;4.05;;;4.70;99.90;;;;;;5063987;28;20203;-77
2023/01/28 11:41:38;;;;;;;4.90;3.55;;;4.70;99.90;;;;;;5065474;28;20200;-76
2023/01/28 11:44:27;;;;;;;6.45;4.22;;;4.60;99.90;;;;;;5068811;28;20195;-76
2023/01/28 11:47:46;;;;;;;4.75;3.72;;;4.70;99.90;;;;;;5066265;28;20259;-77
2023/01/28 11:50:38;;;;;;;4.78;3.90;;;4.70;99.90;;;;;;5059344;28;20222;-76
2023/01/28 11:53:53;;;;;;;6.55;4.20;;;4.70;99.90;;;;;;5059874;28;20721;-77
2023/01/28 11:56:53;;;;;;;7.18;4.22;;;4.60;99.90;;;;;;5063353;28;20625;-76
2023/01/28 11:59:54;;;;;;;5.47;4.10;;;4.70;99.90;;;;;;5061439;28;20566;-77
2023/01/28 12:02:49;;;;;;;6.28;4.32;;;4.60;99.90;;;;;;5059234;28;20207;-76
2023/01/28 12:05:46;;;;;;;5.90;3.97;;;4.60;99.90;;;;;;5066973;28;20305;-76
2023/01/28 12:08:40;;;;;;;7.43;4.22;;;4.60;99.90;;;;;;5058489;28;20278;-76
2023/01/28 12:14:49;;;;;;;5.35;4.10;;;4.60;99.90;;;;;;5066584;28;20357;-75
2023/01/28 12:17:48;;;;;;;4.82;3.92;;;4.60;99.90;;;;;;5062617;28;20192;-76
2023/01/28 12:20:40;;;;;;;6.13;3.58;;;4.60;99.90;;;;;;5060988;28;20677;-76
2023/01/28 12:23:36;;;;;;;5.65;3.75;;;4.50;99.90;;;;;;5064860;28;20656;-76
2023/01/28 12:26:33;;;;;;;8.05;4.00;;;4.50;99.90;;;;;;5068051;28;20223;-76
2023/01/28 12:29:31;;;;;;;6.00;4.10;;;4.60;99.90;;;;;;5063824;28;20204;-75
2023/01/28 12:32:38;;;;;;;4.57;3.53;;;4.50;99.90;;;;;;5069291;28;20225;-75
2023/01/28 12:35:52;;;;;;;4.53;3.17;;;4.60;99.90;;;;;;5060555;28;20327;-75
2023/01/28 12:38:48;;;;;;;4.63;3.42;;;4.60;99.90;;;;;;5062015;28;20723;-75
2023/01/28 12:41:40;;;;;;;6.60;4.60;;;4.50;99.90;;;;;;5063636;28;20205;-76
2023/01/28 12:44:31;;;;;;;3.47;3.05;;;4.50;99.90;;;;;;5069659;28;20640;-75
2023/01/28 12:47:20;;;;;;;5.80;3.65;;;4.50;99.90;;;;;;5062817;28;20274;-75
2023/01/28 12:50:16;;;;;;;4.70;3.72;;;4.50;99.90;;;;;;5069254;28;20397;-75
2023/01/28 12:53:15;;;;;;;3.72;3.20;;;4.50;99.90;;;;;;5062859;28;20245;-76
2023/01/28 12:56:05;;;;;;;5.18;3.05;;;4.50;99.90;;;;;;5062741;28;20732;-76
2023/01/28 12:58:55;;;;;;;3.80;2.97;;;4.60;99.90;;;;;;5065754;28;20320;-76
2023/01/28 13:01:43;;;;;;;8.65;3.70;;;4.50;99.90;;;;;;5064613;28;20332;-75
2023/01/28 13:04:37;;;;;;;5.13;3.33;;;4.50;99.90;;;;;;5063801;28;20686;-75
2023/01/28 13:07:29;;;;;;;4.47;3.20;;;4.60;99.90;;;;;;5065134;28;20319;-75
2023/01/28 13:10:22;;;;;;;4.78;3.33;;;4.60;99.90;;;;;;5061960;28;20200;-76
2023/01/28 13:13:13;;;;;;;13.82;3.30;;;4.50;99.90;;;;;;5059906;28;20232;-75
2023/01/28 13:15:59;;;;;;;6.38;3.58;;;4.50;99.90;;;;;;5061207;28;20225;-75
2023/01/28 13:18:46;;;;;;;4.00;3.58;;;4.60;99.90;;;;;;5067158;28;20251;-75
2023/01/28 13:21:34;;;;;;;4.15;3.50;;;4.50;99.90;;;;;;5065222;28;20204;-75
2023/01/28 13:24:31;;;;;;;6.68;4.25;;;4.40;99.90;;;;;;5061001;28;20228;-76
2023/01/28 13:27:24;;;;;;;7.20;4.22;;;4.30;99.90;;;;;;5072133;28;20223;-76
2023/01/28 13:30:26;;;;;;;7.05;5.05;;;4.40;99.90;;;;;;5068672;28;20209;-74
2023/01/28 13:33:29;;;;;;;8.65;4.50;;;4.40;99.90;;;;;;5066577;28;20263;-75
2023/01/28 13:36:26;;;;;;;5.50;4.00;;;4.30;99.90;;;;;;5061659;28;20212;-75
2023/01/28 13:39:18;;;;;;;6.65;4.75;;;4.20;99.90;;;;;;5063002;28;20250;-76
2023/01/28 13:42:23;;;;;;;6.00;4.60;;;4.20;99.90;;;;;;5067126;28;20209;-75
2023/01/28 13:45:22;;;;;;;9.65;4.53;;;4.20;99.90;;;;;;5060100;28;20212;-75
2023/01/28 13:48:23;;;;;;;5.93;3.95;;;4.30;99.90;;;;;;5066425;28;20237;-77
2023/01/28 13:51:19;;;;;;;4.80;4.30;;;4.30;99.90;;;;;;5065966;28;20199;-75
2023/01/28 13:54:07;;;;;;;4.75;3.55;;;4.30;99.90;;;;;;5060798;28;20724;-76
2023/01/28 13:57:08;;;;;;;4.40;4.00;;;4.30;99.90;;;;;;5060609;28;20351;-75
2023/01/28 14:00:06;;;;;;;4.68;3.80;;;4.30;99.90;;;;;;5067907;28;20257;-76
2023/01/28 14:03:20;;;;;;;11.07;4.65;;;4.40;99.90;;;;;;5072026;28;20196;-76
2023/01/28 14:06:25;;;;;;;4.60;4.13;;;4.40;99.90;;;;;;5059240;28;20220;-75
2023/01/28 14:09:35;;;;;;;9.57;3.70;;;4.30;99.90;;;;;;5056487;28;20686;-76
2023/01/28 14:12:46;;;;;;;5.30;4.80;;;4.40;99.90;;;;;;5060604;28;20262;-75
2023/01/28 14:16:05;;;;;;;4.80;4.18;;;4.30;99.90;;;;;;5061458;28;20224;-76
2023/01/28 14:18:52;;;;;;;4.55;4.05;;;4.30;99.90;;;;;;5057228;28;20561;-75
2023/01/28 14:21:38;;;;;;;9.00;4.95;;;4.30;99.90;;;;;;5060885;28;20209;-76
2023/01/28 14:24:24;;;;;;;5.10;4.35;;;4.30;99.90;;;;;;5062711;28;20331;-76
2023/01/28 14:27:17;;;;;;;8.32;4.85;;;4.30;99.90;;;;;;5068211;28;20220;-75
2023/01/28 14:30:13;;;;;;;5.47;4.07;;;4.30;99.90;;;;;;5060658;28;20201;-76
2023/01/28 14:33:01;;;;;;;6.47;4.88;;;4.20;99.90;;;;;;5062005;28;20216;-76
2023/01/28 14:35:49;;;;;;;5.00;3.70;;;4.20;99.90;;;;;;5065427;28;20327;-75
2023/01/28 14:38:41;;;;;;;10.55;4.55;;;4.20;99.90;;;;;;5062867;28;20205;-75
2023/01/28 14:41:28;;;;;;;4.45;3.70;;;4.10;99.90;;;;;;5067414;28;20204;-75
2023/01/28 14:44:28;;;;;;;4.85;3.45;;;4.20;99.90;;;;;;5067053;28;20195;-76
2023/01/28 14:47:35;;;;;;;3.40;3.10;;;4.20;99.90;;;;;;5065500;28;20605;-76
2023/01/28 14:50:47;;;;;;;5.53;4.07;;;4.10;99.90;;;;;;5069074;28;20274;-75
2023/01/28 14:53:48;;;;;;;4.38;3.40;;;4.10;99.90;;;;;;5069114;28;20223;-75
2023/01/28 14:56:45;;;;;;;5.65;4.13;;;4.10;99.90;;;;;;5068167;28;20614;-76
2023/01/28 14:59:38;;;;;;;7.50;4.15;;;4.10;99.90;;;;;;5063937;28;20327;-75
2023/01/28 15:02:26;;;;;;;8.10;5.50;;;4.00;99.90;;;;;;5065950;28;20197;-76
2023/01/28 15:05:16;;;;;;;5.65;4.30;;;4.00;99.90;;;;;;5057682;28;20228;-76
2023/01/28 15:08:03;;;;;;;5.05;4.30;;;3.90;99.90;;;;;;5060509;28;20204;-76
2023/01/28 15:10:51;;;;;;;6.82;3.53;;;3.90;99.90;;;;;;5071378;28;20777;-76
2023/01/28 15:13:40;;;;;;;4.55;4.07;;;4.00;99.90;;;;;;5066993;28;20390;-75
2023/01/28 15:16:30;;;;;;;6.93;3.90;;;4.00;99.90;;;;;;5068993;28;20273;-76
2023/01/28 15:19:17;;;;;;;6.97;4.65;;;4.00;99.90;;;;;;5064633;28;20585;-75
2023/01/28 15:22:06;;;;;;;5.05;3.92;;;3.90;99.90;;;;;;5063130;28;20263;-76
2023/01/28 15:24:53;;;;;;;5.20;3.80;;;3.80;99.90;;;;;;5058080;28;20222;-76
2023/01/28 15:27:41;;;;;;;4.75;3.83;;;3.80;99.90;;;;;;5066612;28;20267;-75
2023/01/28 15:30:28;;;;;;;6.88;3.80;;;3.90;99.90;;;;;;5065476;28;20673;-75
2023/01/28 15:33:16;;;;;;;5.63;3.95;;;3.80;99.90;;;;;;5057961;28;20265;-76
2023/01/28 15:36:02;;;;;;;5.55;4.03;;;3.80;99.90;;;;;;5061471;28;20216;-76
2023/01/28 15:38:48;;;;;;;5.70;4.18;;;3.80;99.90;;;;;;5069538;28;20205;-75
2023/01/28 15:41:39;;;;;;;4.88;4.32;;;3.80;99.90;;;;;;5060382;28;20199;-76
2023/01/28 15:44:29;;;;;;;5.72;3.63;;;3.80;99.90;;;;;;5059465;28;20201;-74
2023/01/28 15:47:17;;;;;;;5.20;3.63;;;3.80;99.90;;;;;;5065576;28;20573;-75
2023/01/28 15:50:05;;;;;;;4.43;3.50;;;3.80;99.90;;;;;;5059243;28;20204;-76
2023/01/28 15:52:54;;;;;;;6.47;3.97;;;3.80;99.20;;;;;;5070067;28;20220;-75
2023/01/28 15:55:41;;;;;;;5.90;3.60;;;3.70;99.40;;;;;;5057909;28;20245;-76
2023/01/28 15:58:32;;;;;;;5.50;4.70;;;3.70;98.50;;;;;;5061510;28;20298;-75
2023/01/28 16:01:19;;;;;;;6.75;3.78;;;3.80;96.90;;;;;;5063605;28;20200;-76
2023/01/28 16:04:08;;;;;;;5.55;3.67;;;3.70;97.60;;;;;;5067378;28;20201;-76
2023/01/28 16:06:55;;;;;;;6.45;4.65;;;3.60;96.90;;;;;;5063912;28;20599;-76
2023/01/28 16:09:41;;;;;;;5.00;4.20;;;3.60;97.10;;;;;;5065026;28;20203;-76